createdAt,value
2023-04-07T00:01:25.652Z,98361.63
2023-04-07T00:03:52.534Z,98366.78
2023-04-07T00:06:19.472Z,98360.47
2023-04-07T00:08:46.192Z,98360.69
2023-04-07T00:11:13.207Z,98352.53
2023-04-07T00:13:39.903Z,98341.16
2023-04-07T00:16:06.802Z,98347.19
2023-04-07T00:18:33.589Z,98347.09
2023-04-07T00:21:00.288Z,98345.50
2023-04-07T00:23:27.168Z,98345.50
2023-04-07T00:25:53.996Z,98344.59
2023-04-07T00:28:20.726Z,98348.88
2023-04-07T00:30:47.655Z,98339.91
2023-04-07T00:33:14.489Z,98335.09
2023-04-07T00:35:41.330Z,98342.00
2023-04-07T00:38:08.133Z,98336.94
2023-04-07T00:40:34.831Z,98329.88
2023-04-07T00:43:01.605Z,98324.81
2023-04-07T00:45:28.510Z,98320.78
2023-04-07T00:47:57.701Z,98320.03
2023-04-07T00:50:24.543Z,98320.13
2023-04-07T00:52:51.472Z,98314.09
2023-04-07T00:55:18.317Z,98309.06
2023-04-07T00:57:46.642Z,98311.78
2023-04-07T01:00:14.277Z,98307.44
2023-04-07T01:02:48.305Z,98308.38
2023-04-07T01:05:17.341Z,98304.91
2023-04-07T01:08:24.560Z,98305.16
2023-04-07T01:11:03.808Z,98308.97
2023-04-07T01:13:36.558Z,98308.91
2023-04-07T01:16:19.776Z,98308.06
2023-04-07T01:18:54.236Z,98308.88
2023-04-07T01:21:27.062Z,98304.53
2023-04-07T01:24:06.404Z,98299.03
2023-04-07T01:26:34.079Z,98299.25
2023-04-07T01:29:19.527Z,98295.75
2023-04-07T01:31:49.059Z,98293.16
2023-04-07T01:34:17.524Z,98291.53
2023-04-07T01:36:46.784Z,98287.94
2023-04-07T01:39:14.336Z,98284.56
2023-04-07T01:41:42.442Z,98284.00
2023-04-07T01:44:09.780Z,98278.59
2023-04-07T01:46:36.628Z,98279.63
2023-04-07T01:49:04.818Z,98275.31
2023-04-07T01:51:33.735Z,98273.56
2023-04-07T01:54:02.440Z,98271.91
2023-04-07T01:56:29.181Z,98272.91
2023-04-07T01:58:57.753Z,98267.13
2023-04-07T02:01:25.711Z,98263.31
2023-04-07T02:04:12.955Z,98270.53
2023-04-07T02:06:49.093Z,98271.91
2023-04-07T02:09:21.358Z,98266.59
2023-04-07T02:11:51.156Z,98272.50
2023-04-07T02:14:21.386Z,98279.53
2023-04-07T02:17:09.580Z,98268.28
2023-04-07T02:19:36.465Z,98267.81
2023-04-07T02:22:04.937Z,98261.91
2023-04-07T02:24:31.686Z,98261.09
2023-04-07T02:27:00.814Z,98258.66
2023-04-07T02:29:27.707Z,98253.44
2023-04-07T02:31:56.274Z,98257.97
2023-04-07T02:34:23.169Z,98258.13
2023-04-07T02:36:50.102Z,98259.81
2023-04-07T02:39:16.977Z,98259.72
2023-04-07T02:41:43.790Z,98257.72
2023-04-07T02:44:13.415Z,98259.22
2023-04-07T02:46:41.345Z,98262.00
2023-04-07T02:49:08.092Z,98261.50
2023-04-07T02:51:34.905Z,98264.97
2023-04-07T02:54:01.643Z,98270.19
2023-04-07T02:56:28.354Z,98276.34
2023-04-07T02:58:55.274Z,98273.94
2023-04-07T03:01:22.385Z,98272.97
2023-04-07T03:03:49.289Z,98269.47
2023-04-07T03:06:20.970Z,98274.44
2023-04-07T03:09:05.460Z,98271.56
2023-04-07T03:11:33.319Z,98272.28
2023-04-07T03:14:01.002Z,98269.94
2023-04-07T03:16:30.226Z,98276.88
2023-04-07T03:19:05.672Z,98270.69
2023-04-07T03:21:37.983Z,98266.16
2023-04-07T03:24:06.098Z,98261.91
2023-04-07T03:26:33.112Z,98268.19
2023-04-07T03:29:00.953Z,98264.69
2023-04-07T03:31:30.404Z,98266.44
2023-04-07T03:33:57.257Z,98268.28
2023-04-07T03:36:24.999Z,98269.03
2023-04-07T03:38:51.836Z,98268.09
2023-04-07T03:41:18.905Z,98270.00
2023-04-07T03:43:47.428Z,98272.50
2023-04-07T03:46:15.563Z,98268.09
2023-04-07T03:48:42.720Z,98274.97
2023-04-07T03:51:10.974Z,98270.44
2023-04-07T03:53:38.294Z,98271.25
2023-04-07T03:56:17.361Z,98272.78
2023-04-07T03:58:50.926Z,98269.03
2023-04-07T04:01:25.949Z,98270.88
2023-04-07T04:03:54.075Z,98275.53
2023-04-07T04:06:29.638Z,98274.75
2023-04-07T04:09:04.784Z,98268.63
2023-04-07T04:11:35.786Z,98271.34
2023-04-07T04:14:04.671Z,98263.41
2023-04-07T04:16:32.867Z,98258.25
2023-04-07T04:19:04.161Z,98260.97
2023-04-07T04:21:31.405Z,98263.63
2023-04-07T04:23:58.184Z,98262.78
2023-04-07T04:26:26.594Z,98261.13
2023-04-07T04:28:57.391Z,98260.16
2023-04-07T04:31:25.062Z,98261.84
2023-04-07T04:33:52.866Z,98254.22
2023-04-07T04:36:20.379Z,98267.66
2023-04-07T04:38:47.201Z,98273.84
2023-04-07T04:41:16.944Z,98272.09
2023-04-07T04:43:44.154Z,98271.13
2023-04-07T04:46:14.955Z,98271.06
2023-04-07T04:48:43.222Z,98269.25
2023-04-07T04:51:10.205Z,98259.56
2023-04-07T04:53:38.618Z,98272.53
2023-04-07T04:56:07.514Z,98264.78
2023-04-07T04:58:46.031Z,98269.16
2023-04-07T05:01:18.456Z,98271.75
2023-04-07T05:03:54.688Z,98269.03
2023-04-07T05:06:25.103Z,98269.91
2023-04-07T05:08:52.866Z,98262.78
2023-04-07T05:11:23.903Z,98262.13
2023-04-07T05:13:53.264Z,98263.63
2023-04-07T05:16:20.302Z,98265.28
2023-04-07T05:18:47.522Z,98265.47
2023-04-07T05:21:14.954Z,98266.09
2023-04-07T05:23:41.693Z,98260.84
2023-04-07T05:26:10.864Z,98259.84
2023-04-07T05:28:37.635Z,98255.41
2023-04-07T05:31:09.489Z,98260.63
2023-04-07T05:33:36.560Z,98254.88
2023-04-07T05:36:03.692Z,98254.31
2023-04-07T05:38:33.217Z,98250.81
2023-04-07T05:41:07.895Z,98249.19
2023-04-07T05:43:36.302Z,98250.94
2023-04-07T05:46:03.303Z,98252.50
2023-04-07T05:48:31.150Z,98255.00
2023-04-07T05:50:58.588Z,98261.16
2023-04-07T05:53:25.491Z,98256.84
2023-04-07T05:55:52.355Z,98257.75
2023-04-07T05:58:26.142Z,98263.13
2023-04-07T06:00:54.649Z,98270.16
2023-04-07T06:03:21.621Z,98274.47
2023-04-07T06:05:58.410Z,98278.03
2023-04-07T06:08:26.156Z,98275.41
2023-04-07T06:10:53.088Z,98282.34
2023-04-07T06:13:19.847Z,98277.91
2023-04-07T06:15:46.573Z,98281.44
2023-04-07T06:18:13.402Z,98280.34
2023-04-07T06:20:40.365Z,98277.88
2023-04-07T06:23:07.281Z,98278.06
2023-04-07T06:25:33.929Z,98285.13
2023-04-07T06:28:01.288Z,98277.09
2023-04-07T06:30:28.158Z,98284.91
2023-04-07T06:32:55.112Z,98281.16
2023-04-07T06:35:21.983Z,98281.75
2023-04-07T06:37:48.809Z,98285.81
2023-04-07T06:40:15.739Z,98279.84
2023-04-07T06:42:42.443Z,98289.69
2023-04-07T06:45:19.771Z,98294.06
2023-04-07T06:47:46.827Z,98284.69
2023-04-07T06:50:13.635Z,98286.81
2023-04-07T06:52:40.313Z,98295.44
2023-04-07T06:55:07.854Z,98291.81
2023-04-07T06:57:34.545Z,98294.03
2023-04-07T07:00:01.270Z,98295.34
2023-04-07T07:02:28.147Z,98308.31
2023-04-07T07:04:55.111Z,98304.47
2023-04-07T07:07:21.797Z,98310.38
2023-04-07T07:09:48.543Z,98320.66
2023-04-07T07:12:17.132Z,98313.34
2023-04-07T07:14:44.221Z,98319.81
2023-04-07T07:17:10.899Z,98318.16
2023-04-07T07:19:37.582Z,98316.22
2023-04-07T07:22:04.799Z,98314.06
2023-04-07T07:24:34.015Z,98313.13
2023-04-07T07:27:02.494Z,98317.50
2023-04-07T07:29:29.504Z,98316.53
2023-04-07T07:31:56.427Z,98319.34
2023-04-07T07:34:23.191Z,98319.59
2023-04-07T07:36:49.887Z,98319.19
2023-04-07T07:39:16.732Z,98329.59
2023-04-07T07:41:43.469Z,98325.59
2023-04-07T07:44:10.417Z,98329.66
2023-04-07T07:46:37.234Z,98331.84
2023-04-07T07:49:05.769Z,98324.97
2023-04-07T07:51:32.548Z,98332.72
2023-04-07T07:53:59.258Z,98344.81
2023-04-07T07:56:26.010Z,98337.72
2023-04-07T07:58:52.706Z,98332.72
2023-04-07T08:01:19.484Z,98336.72
2023-04-07T08:03:46.675Z,98328.25
2023-04-07T08:06:13.934Z,98333.31
2023-04-07T08:08:40.764Z,98336.50
2023-04-07T08:11:07.580Z,98336.41
2023-04-07T08:13:34.538Z,98348.44
2023-04-07T08:16:01.563Z,98345.28
2023-04-07T08:18:28.336Z,98354.53
2023-04-07T08:20:55.607Z,98351.63
2023-04-07T08:23:22.450Z,98357.59
2023-04-07T08:25:49.185Z,98360.06
2023-04-07T08:28:16.050Z,98363.41
2023-04-07T08:30:42.695Z,98359.50
2023-04-07T08:33:09.535Z,98354.28
2023-04-07T08:35:36.340Z,98363.78
2023-04-07T08:38:03.600Z,98364.16
2023-04-07T08:40:30.823Z,98362.19
2023-04-07T08:43:00.390Z,98377.09
2023-04-07T08:45:28.921Z,98369.72
2023-04-07T08:47:58.088Z,98371.75
2023-04-07T08:50:27.800Z,98369.59
2023-04-07T08:52:56.724Z,98373.28
2023-04-07T08:55:23.831Z,98376.59
2023-04-07T08:57:52.102Z,98372.28
2023-04-07T09:00:19.287Z,98383.72
2023-04-07T09:02:48.785Z,98378.78
2023-04-07T09:05:15.622Z,98384.50
2023-04-07T09:07:45.825Z,98381.38
2023-04-07T09:10:12.586Z,98381.44
2023-04-07T09:12:39.363Z,98383.41
2023-04-07T09:15:07.754Z,98383.66
2023-04-07T09:17:34.558Z,98387.34
2023-04-07T09:20:02.099Z,98393.94
2023-04-07T09:22:36.282Z,98388.44
2023-04-07T09:25:13.924Z,98395.88
2023-04-07T09:27:40.961Z,98384.44
2023-04-07T09:30:13.027Z,98390.78
2023-04-07T09:32:41.196Z,98401.59
2023-04-07T09:35:08.546Z,98393.47
2023-04-07T09:37:35.691Z,98390.97
2023-04-07T09:40:02.637Z,98391.53
2023-04-07T09:42:32.646Z,98392.34
2023-04-07T09:45:00.844Z,98390.16
2023-04-07T09:47:29.342Z,98393.47
2023-04-07T09:49:57.282Z,98394.34
2023-04-07T09:52:46.561Z,98390.69
2023-04-07T09:55:14.572Z,98386.22
2023-04-07T09:57:42.477Z,98390.41
2023-04-07T10:00:10.476Z,98398.75
2023-04-07T10:02:40.187Z,98396.72
2023-04-07T10:05:07.941Z,98397.63
2023-04-07T10:07:35.701Z,98399.97
2023-04-07T10:10:08.287Z,98402.16
2023-04-07T10:12:41.356Z,98407.28
2023-04-07T10:15:09.189Z,98399.25
2023-04-07T10:17:36.814Z,98396.66
2023-04-07T10:20:06.620Z,98396.69
2023-04-07T10:22:35.178Z,98408.72
2023-04-07T10:25:11.094Z,98406.47
2023-04-07T10:27:50.403Z,98412.56
2023-04-07T10:30:30.984Z,98419.38
2023-04-07T10:32:59.180Z,98414.06
2023-04-07T10:35:26.565Z,98417.94
2023-04-07T10:38:10.810Z,98415.03
2023-04-07T10:40:38.224Z,98421.03
2023-04-07T10:43:09.424Z,98422.59
2023-04-07T10:45:55.966Z,98422.03
2023-04-07T10:48:23.380Z,98426.53
2023-04-07T10:51:15.379Z,98426.16
2023-04-07T10:54:17.155Z,98421.59
2023-04-07T10:57:02.757Z,98422.34
2023-04-07T10:59:30.253Z,98425.00
2023-04-07T11:02:12.243Z,98427.41
2023-04-07T11:04:41.248Z,98433.66
2023-04-07T11:07:08.428Z,98427.56
2023-04-07T11:09:35.412Z,98428.50
2023-04-07T11:12:02.641Z,98429.59
2023-04-07T11:14:30.640Z,98427.47
2023-04-07T11:16:58.246Z,98419.25
2023-04-07T11:19:25.412Z,98436.47
2023-04-07T11:22:28.641Z,98425.00
2023-04-07T11:24:57.211Z,98429.53
2023-04-07T11:27:24.186Z,98428.56
2023-04-07T11:29:51.080Z,98420.84
2023-04-07T11:32:25.809Z,98423.22
2023-04-07T11:34:53.037Z,98425.25
2023-04-07T11:37:21.054Z,98425.13
2023-04-07T11:39:54.080Z,98428.34
2023-04-07T11:42:38.293Z,98425.47
2023-04-07T11:45:07.822Z,98412.59
2023-04-07T11:47:40.179Z,98414.66
2023-04-07T11:50:07.825Z,98407.53
2023-04-07T11:52:54.784Z,98414.88
2023-04-07T11:55:24.413Z,98415.69
2023-04-07T11:57:51.956Z,98404.91
2023-04-07T12:00:20.324Z,98401.38
2023-04-07T12:02:47.408Z,98396.59
2023-04-07T12:05:14.496Z,98409.34
2023-04-07T12:07:53.162Z,98399.09
2023-04-07T12:10:27.807Z,98399.00
2023-04-07T12:12:54.553Z,98399.41
2023-04-07T12:15:21.265Z,98389.63
2023-04-07T12:17:48.842Z,98393.41
2023-04-07T12:20:16.327Z,98385.44
2023-04-07T12:22:43.095Z,98382.66
2023-04-07T12:25:09.923Z,98381.56
2023-04-07T12:27:43.290Z,98375.06
2023-04-07T12:30:11.702Z,98357.19
2023-04-07T12:32:38.963Z,98353.56
2023-04-07T12:35:06.428Z,98353.81
2023-04-07T12:37:33.368Z,98351.19
2023-04-07T12:40:00.520Z,98364.19
2023-04-07T12:42:27.992Z,98359.50
2023-04-07T12:44:54.744Z,98355.41
2023-04-07T12:47:21.983Z,98354.09
2023-04-07T12:49:50.311Z,98354.59
2023-04-07T12:52:17.493Z,98349.44
2023-04-07T12:54:45.338Z,98352.03
2023-04-07T12:57:12.407Z,98346.97
2023-04-07T12:59:39.465Z,98339.03
2023-04-07T13:02:06.953Z,98350.97
2023-04-07T13:04:35.096Z,98352.53
2023-04-07T13:07:03.092Z,98348.31
2023-04-07T13:09:29.910Z,98348.16
2023-04-07T13:11:57.985Z,98353.34
2023-04-07T13:14:25.012Z,98351.19
2023-04-07T13:16:53.102Z,98357.47
2023-04-07T13:19:19.969Z,98350.50
2023-04-07T13:21:48.123Z,98362.56
2023-04-07T13:24:15.659Z,98363.84
2023-04-07T13:26:42.380Z,98355.94
2023-04-07T13:29:09.154Z,98366.06
2023-04-07T13:31:36.261Z,98361.31
2023-04-07T13:34:03.054Z,98357.78
2023-04-07T13:36:29.963Z,98351.03
2023-04-07T13:38:56.952Z,98354.84
2023-04-07T13:41:23.814Z,98363.19
2023-04-07T13:43:51.083Z,98363.03
2023-04-07T13:46:28.020Z,98359.38
2023-04-07T13:48:56.560Z,98368.00
2023-04-07T13:51:23.412Z,98370.28
2023-04-07T13:53:50.402Z,98380.94
2023-04-07T13:56:17.322Z,98375.69
2023-04-07T13:58:44.459Z,98377.09
2023-04-07T14:01:11.255Z,98374.03
2023-04-07T14:03:38.711Z,98370.41
2023-04-07T14:06:05.913Z,98374.97
2023-04-07T14:08:32.673Z,98368.69
2023-04-07T14:10:59.629Z,98374.97
2023-04-07T14:13:26.401Z,98371.34
2023-04-07T14:15:53.912Z,98379.75
2023-04-07T14:18:20.912Z,98372.91
2023-04-07T14:20:47.705Z,98379.06
2023-04-07T14:23:18.620Z,98384.84
2023-04-07T14:25:47.648Z,98400.16
2023-04-07T14:28:14.399Z,98411.41
2023-04-07T14:30:41.202Z,98404.22
2023-04-07T14:33:08.240Z,98405.25
2023-04-07T14:35:37.480Z,98411.34
2023-04-07T14:38:04.447Z,98403.84
2023-04-07T14:40:31.583Z,98393.47
2023-04-07T14:45:29.502Z,98383.75
2023-04-07T14:47:56.327Z,98383.09
2023-04-07T14:50:23.815Z,98380.44
2023-04-07T14:52:50.659Z,98381.16
2023-04-07T14:55:18.245Z,98375.97
2023-04-07T14:57:45.343Z,98375.84
2023-04-07T15:00:12.463Z,98380.38
2023-04-07T15:02:40.348Z,98377.41
2023-04-07T15:05:07.891Z,98374.13
2023-04-07T15:07:34.912Z,98375.03
2023-04-07T15:10:01.679Z,98375.03
2023-04-07T15:12:31.300Z,98372.38
2023-04-07T15:14:57.985Z,98372.78
2023-04-07T15:17:36.430Z,98376.50
2023-04-07T15:20:09.760Z,98384.91
2023-04-07T15:22:36.490Z,98381.00
2023-04-07T15:25:03.632Z,98388.50
2023-04-07T15:27:30.451Z,98393.03
2023-04-07T15:29:57.159Z,98387.94
2023-04-07T15:32:23.949Z,98401.91
2023-04-07T15:34:50.915Z,98393.00
2023-04-07T15:37:18.828Z,98394.88
2023-04-07T15:39:45.543Z,98401.88
2023-04-07T15:42:12.799Z,98401.91
2023-04-07T15:44:39.874Z,98401.09
2023-04-07T15:47:07.218Z,98400.66
2023-04-07T15:49:37.203Z,98390.59
2023-04-07T15:52:07.187Z,98383.81
2023-04-07T15:54:33.981Z,98381.72
2023-04-07T15:57:01.107Z,98380.16
2023-04-07T15:59:30.689Z,98385.41
2023-04-07T16:01:57.726Z,98407.53
2023-04-07T16:04:24.577Z,98415.78
2023-04-07T16:06:51.327Z,98417.84
2023-04-07T16:09:18.031Z,98437.66
2023-04-07T16:11:44.896Z,98454.84
2023-04-07T16:14:11.861Z,98455.06
2023-04-07T16:16:40.906Z,98467.13
2023-04-07T16:19:08.111Z,98470.28
2023-04-07T16:21:34.982Z,98479.31
2023-04-07T16:24:01.819Z,98484.72
2023-04-07T16:26:28.538Z,98480.44
2023-04-07T16:28:55.280Z,98487.44
2023-04-07T16:31:22.171Z,98490.06
2023-04-07T16:33:50.888Z,98493.59
2023-04-07T16:36:17.752Z,98497.72
2023-04-07T16:38:44.490Z,98501.03
2023-04-07T16:41:11.225Z,98499.34
2023-04-07T16:43:37.936Z,98508.41
2023-04-07T16:46:06.226Z,98511.41
2023-04-07T16:48:33.312Z,98503.63
2023-04-07T16:51:00.147Z,98504.00
2023-04-07T16:53:26.844Z,98507.88
2023-04-07T16:55:53.626Z,98505.03
2023-04-07T16:58:20.420Z,98509.03
2023-04-07T17:00:47.137Z,98510.22
2023-04-07T17:03:15.448Z,98509.25
2023-04-07T17:05:44.453Z,98514.44
2023-04-07T17:08:11.647Z,98516.88
2023-04-07T17:10:38.462Z,98524.59
2023-04-07T17:13:05.465Z,98525.44
2023-04-07T17:15:36.483Z,98517.16
2023-04-07T17:18:03.584Z,98529.03
2023-04-07T17:20:30.290Z,98536.31
2023-04-07T17:22:56.971Z,98538.16
2023-04-07T17:25:24.785Z,98543.66
2023-04-07T17:27:51.609Z,98542.72
2023-04-07T17:30:18.567Z,98546.00
2023-04-07T17:32:45.437Z,98543.47
2023-04-07T17:35:12.119Z,98553.13
2023-04-07T17:37:39.005Z,98555.06
2023-04-07T17:40:06.585Z,98562.00
2023-04-07T17:42:33.291Z,98568.22
2023-04-07T17:45:00.557Z,98567.47
2023-04-07T17:47:27.353Z,98575.44
2023-04-07T17:49:54.238Z,98580.94
2023-04-07T17:52:21.537Z,98584.53
2023-04-07T17:54:48.375Z,98579.97
2023-04-07T17:57:15.819Z,98586.94
2023-04-07T17:59:42.676Z,98588.66
2023-04-07T18:02:10.239Z,98596.63
2023-04-07T18:04:37.548Z,98594.97
2023-04-07T18:07:04.972Z,98596.66
2023-04-07T18:09:32.761Z,98598.50
2023-04-07T18:12:01.593Z,98596.72
2023-04-07T18:14:28.869Z,98599.50
2023-04-07T18:16:56.143Z,98602.28
2023-04-07T18:19:23.215Z,98606.66
2023-04-07T18:21:52.965Z,98610.25
2023-04-07T18:24:20.876Z,98611.03
2023-04-07T18:26:47.890Z,98619.59
2023-04-07T18:29:14.865Z,98617.88
2023-04-07T18:31:44.489Z,98618.63
2023-04-07T18:34:11.933Z,98614.34
2023-04-07T18:36:41.066Z,98623.03
2023-04-07T18:39:07.995Z,98638.94
2023-04-07T18:41:35.071Z,98633.03
2023-04-07T18:44:01.844Z,98634.72
2023-04-07T18:46:28.712Z,98637.44
2023-04-07T18:48:55.578Z,98645.47
2023-04-07T18:51:22.436Z,98649.03
2023-04-07T18:53:49.448Z,98647.41
2023-04-07T18:56:16.795Z,98644.91
2023-04-07T18:58:43.896Z,98654.63
2023-04-07T19:01:12.132Z,98657.44
2023-04-07T19:03:39.776Z,98660.25
2023-04-07T19:06:07.061Z,98665.69
2023-04-07T19:08:34.019Z,98666.53
2023-04-07T19:11:00.744Z,98665.66
2023-04-07T19:13:27.768Z,98673.63
2023-04-07T19:15:54.576Z,98675.38
2023-04-07T19:18:21.311Z,98682.41
2023-04-07T19:20:48.073Z,98685.09
2023-04-07T19:23:15.447Z,98686.78
2023-04-07T19:25:45.084Z,98687.66
2023-04-07T19:28:12.822Z,98692.06
2023-04-07T19:30:39.577Z,98693.84
2023-04-07T19:33:06.610Z,98699.06
2023-04-07T19:35:33.984Z,98700.81
2023-04-07T19:38:00.898Z,98698.19
2023-04-07T19:40:27.943Z,98699.25
2023-04-07T19:42:56.076Z,98700.16
2023-04-07T19:45:22.841Z,98702.22
2023-04-07T19:47:49.790Z,98708.75
2023-04-07T19:50:16.656Z,98716.19
2023-04-07T19:52:45.233Z,98718.78
2023-04-07T19:55:13.504Z,98722.31
2023-04-07T19:57:40.534Z,98724.13
2023-04-07T20:00:09.084Z,98715.22
2023-04-07T20:02:36.918Z,98723.09
2023-04-07T20:05:04.347Z,98721.53
2023-04-07T20:07:32.006Z,98723.19
2023-04-07T20:09:58.807Z,98725.97
2023-04-07T20:12:25.644Z,98727.81
2023-04-07T20:14:52.509Z,98727.72
2023-04-07T20:17:19.760Z,98738.34
2023-04-07T20:19:47.825Z,98727.72
2023-04-07T20:22:14.723Z,98729.47
2023-04-07T20:24:41.551Z,98730.25
2023-04-07T20:27:08.406Z,98736.31
2023-04-07T20:29:35.116Z,98738.03
2023-04-07T20:32:02.381Z,98741.63
2023-04-07T20:34:29.288Z,98741.56
2023-04-07T20:36:56.519Z,98733.69
2023-04-07T20:39:23.254Z,98739.88
2023-04-07T20:41:50.778Z,98739.19
2023-04-07T20:44:18.348Z,98740.81
2023-04-07T20:46:46.815Z,98739.88
2023-04-07T20:49:13.623Z,98742.44
2023-04-07T20:51:40.417Z,98752.22
2023-04-07T20:54:07.758Z,98745.22
2023-04-07T20:56:34.633Z,98748.69
2023-04-07T20:59:01.312Z,98744.34
2023-04-07T21:01:28.303Z,98745.28
2023-04-07T21:03:55.233Z,98751.41
2023-04-07T21:06:22.288Z,98750.53
2023-04-07T21:08:49.218Z,98747.19
2023-04-07T21:11:16.207Z,98754.28
2023-04-07T21:13:43.066Z,98760.44
2023-04-07T21:16:09.901Z,98760.44
2023-04-07T21:18:37.136Z,98755.28
2023-04-07T21:21:04.322Z,98756.72
2023-04-07T21:23:31.894Z,98756.56
2023-04-07T21:26:03.212Z,98758.34
2023-04-07T21:28:29.990Z,98754.56
2023-04-07T21:30:57.076Z,98761.53
2023-04-07T21:33:24.266Z,98761.41
2023-04-07T21:35:51.861Z,98762.22
2023-04-07T21:38:19.036Z,98765.13
2023-04-07T21:40:45.959Z,98752.72
2023-04-07T21:43:13.132Z,98759.03
2023-04-07T21:45:39.925Z,98755.63
2023-04-07T21:48:06.976Z,98753.78
2023-04-07T21:50:34.122Z,98752.84
2023-04-07T21:53:00.967Z,98747.50
2023-04-07T21:55:27.842Z,98750.03
2023-04-07T21:57:54.813Z,98749.31
2023-04-07T22:00:22.020Z,98754.81
2023-04-07T22:02:49.578Z,98747.88
2023-04-07T22:05:16.686Z,98754.00
2023-04-07T22:07:45.561Z,98749.53
2023-04-07T22:10:13.089Z,98757.50
2023-04-07T22:12:40.378Z,98755.81
2023-04-07T22:15:08.986Z,98761.13
2023-04-07T22:17:35.897Z,98762.00
2023-04-07T22:20:03.071Z,98766.53
2023-04-07T22:22:30.127Z,98767.41
2023-04-07T22:24:56.829Z,98769.25
2023-04-07T22:27:23.527Z,98766.66
2023-04-07T22:29:50.474Z,98778.19
2023-04-07T22:32:17.245Z,98780.06
2023-04-07T22:34:44.480Z,98780.38
2023-04-07T22:37:11.363Z,98778.44
2023-04-07T22:39:39.250Z,98780.13
2023-04-07T22:42:06.255Z,98789.00
2023-04-07T22:44:33.106Z,98793.47
2023-04-07T22:46:59.924Z,98793.56
2023-04-07T22:49:26.722Z,98797.97
2023-04-07T22:51:55.200Z,98796.13
2023-04-07T22:54:21.939Z,98790.06
2023-04-07T22:56:48.710Z,98802.53
2023-04-07T22:59:15.460Z,98803.41
2023-04-07T23:01:42.173Z,98804.34
2023-04-07T23:04:08.951Z,98803.31
2023-04-07T23:06:35.711Z,98808.56
2023-04-07T23:09:02.606Z,98805.91
2023-04-07T23:11:29.367Z,98805.00
2023-04-07T23:13:56.363Z,98804.00
2023-04-07T23:16:23.270Z,98809.19
2023-04-07T23:18:50.344Z,98805.69
2023-04-07T23:21:17.193Z,98805.56
2023-04-07T23:23:44.065Z,98806.41
2023-04-07T23:26:10.773Z,98808.22
2023-04-07T23:28:37.536Z,98803.75
2023-04-07T23:31:06.532Z,98810.03
2023-04-07T23:33:33.586Z,98807.50
2023-04-07T23:36:00.574Z,98803.13
2023-04-07T23:38:27.503Z,98803.16
2023-04-07T23:40:54.150Z,98803.97
2023-04-07T23:43:20.871Z,98814.50
2023-04-07T23:45:47.842Z,98812.66
2023-04-07T23:48:15.523Z,98815.19
2023-04-07T23:50:42.233Z,98810.78
2023-04-07T23:53:08.962Z,98817.13
2023-04-07T23:55:35.753Z,98820.78
2023-04-07T23:58:02.427Z,98809.41
